Time;durP1;ratioP1;P1;durP2;ratioP2;P2;SDS_P1;SDS_P2;PMS_P1;PMS_P2;Temp;Humidity;BMP_temperature;BMP_pressure;BME280_temperature;BME280_humidity;BME280_pressure;Samples;Min_cycle;Max_cycle;Signal;HPM_P1;HPM_P2
2021/12/28 00:01:46;;;;;;;32.53;22.05;;;;;;;7.96;100.00;99285.59;5043647;28;20033;-73
2021/12/28 00:04:12;;;;;;;42.92;24.85;;;;;;;7.89;100.00;99282.47;5039468;28;20032;-72
2021/12/28 00:06:37;;;;;;;50.97;24.60;;;;;;;7.94;100.00;99287.00;5043064;28;20033;-73
2021/12/28 00:09:03;;;;;;;44.53;25.33;;;;;;;7.98;100.00;99291.53;5042201;28;20309;-72
2021/12/28 00:11:28;;;;;;;52.85;25.10;;;;;;;7.95;100.00;99288.63;5042133;28;20112;-72
2021/12/28 00:14:00;;;;;;;45.85;24.00;;;;;;;7.85;100.00;99289.63;5046038;28;20028;-71
2021/12/28 00:17:58;;;;;;;46.00;23.70;;;;;;;8.01;100.00;99285.47;5061465;28;20020;-73
2021/12/28 00:19:17;;;;;;;53.00;24.35;;;;;;;8.05;100.00;99289.25;5055410;28;20124;-72
2021/12/28 00:21:43;;;;;;;42.33;22.67;;;;;;;8.04;100.00;99284.88;5043423;28;20140;-71
2021/12/28 00:24:08;;;;;;;48.10;22.92;;;;;;;8.07;100.00;99291.66;5023230;28;20211;-72
2021/12/28 00:26:33;;;;;;;41.30;22.48;;;;;;;8.14;100.00;99288.53;5041712;28;20468;-72
2021/12/28 00:28:59;;;;;;;51.20;24.38;;;;;;;8.26;100.00;99289.63;5039702;28;20041;-71
2021/12/28 00:31:26;;;;;;;51.20;23.67;;;;;;;8.30;100.00;99289.84;5025722;28;20025;-72
2021/12/28 00:33:53;;;;;;;49.92;21.63;;;;;;;8.36;100.00;99285.06;5039646;28;20028;-72
2021/12/28 00:36:18;;;;;;;39.15;21.23;;;;;;;8.36;100.00;99291.34;5041412;28;20534;-73
2021/12/28 00:38:46;;;;;;;47.95;21.30;;;;;;;8.48;100.00;99290.03;5042270;28;20060;-73
2021/12/28 00:41:12;;;;;;;47.45;21.40;;;;;;;8.51;100.00;99289.41;5042686;28;20024;-71
2021/12/28 00:43:38;;;;;;;50.88;20.02;;;;;;;8.50;100.00;99285.88;5041864;28;20112;-72
2021/12/28 00:46:05;;;;;;;39.30;20.92;;;;;;;8.55;100.00;99280.31;5039318;28;20058;-72
2021/12/28 00:48:31;;;;;;;45.33;19.58;;;;;;;8.50;100.00;99274.16;5041200;28;20075;-72
2021/12/28 00:50:58;;;;;;;44.72;20.35;;;;;;;8.55;100.00;99272.13;5046889;28;20115;-73
2021/12/28 00:53:24;;;;;;;51.78;19.50;;;;;;;8.58;100.00;99267.97;5051223;28;20024;-72
2021/12/28 00:55:50;;;;;;;39.00;18.52;;;;;;;8.61;100.00;99273.63;5063474;28;20352;-72
2021/12/28 00:58:17;;;;;;;39.20;18.35;;;;;;;8.71;100.00;99263.59;5043856;28;20025;-71
2021/12/28 01:00:44;;;;;;;42.33;19.17;;;;;;;8.75;100.00;99259.09;5060906;28;20036;-73
2021/12/28 01:03:10;;;;;;;32.75;17.13;;;;;;;8.78;100.00;99259.28;5060734;28;20450;-71
2021/12/28 01:05:37;;;;;;;42.08;17.92;;;;;;;8.87;100.00;99248.47;5062659;28;20032;-71
2021/12/28 01:08:03;;;;;;;34.90;16.88;;;;;;;8.70;100.00;99245.56;5062575;28;20112;-71
2021/12/28 01:10:33;;;;;;;38.88;16.10;;;;;;;8.72;100.00;99241.41;5052985;28;20036;-70
2021/12/28 01:12:59;;;;;;;33.60;15.43;;;;;;;8.67;100.00;99243.44;5067627;28;20108;-72
2021/12/28 01:15:27;;;;;;;38.45;15.32;;;;;;;8.70;100.00;99232.72;5064190;28;20052;-72
2021/12/28 01:17:52;;;;;;;38.28;14.68;;;;;;;8.66;100.00;99242.66;5047004;28;20047;-72
2021/12/28 01:20:18;;;;;;;36.15;13.85;;;;;;;8.50;100.00;99239.44;5047367;28;20086;-72
2021/12/28 01:22:45;;;;;;;43.25;14.80;;;;;;;8.50;100.00;99241.38;5047342;28;20391;-72
2021/12/28 01:25:12;;;;;;;38.45;14.15;;;;;;;8.56;100.00;99245.59;5048167;28;20028;-72
2021/12/28 01:27:38;;;;;;;42.20;14.18;;;;;;;8.51;100.00;99240.25;5068676;28;20226;-72
2021/12/28 01:30:06;;;;;;;47.33;15.27;;;;;;;8.46;100.00;99238.44;5063534;28;20404;-72
2021/12/28 01:32:32;;;;;;;37.67;12.27;;;;;;;8.45;100.00;99243.09;5064844;28;20071;-72
2021/12/28 01:34:58;;;;;;;35.63;11.75;;;;;;;8.55;100.00;99242.06;5067857;28;20036;-72
2021/12/28 01:37:23;;;;;;;35.78;12.88;;;;;;;8.45;100.00;99245.03;5063358;28;20037;-71
2021/12/28 01:39:48;;;;;;;41.95;12.05;;;;;;;8.43;100.00;99244.53;5049057;28;20479;-72
2021/12/28 01:42:14;;;;;;;44.58;14.65;;;;;;;8.49;100.00;99239.75;5061428;28;20471;-71
2021/12/28 01:44:39;;;;;;;39.10;13.98;;;;;;;8.30;100.00;99240.69;5064190;28;20144;-72
2021/12/28 01:47:05;;;;;;;35.83;13.30;;;;;;;8.45;100.00;99243.09;5068305;28;20456;-71
2021/12/28 01:49:31;;;;;;;35.55;13.68;;;;;;;8.45;100.00;99236.84;5020113;28;20028;-71
2021/12/28 01:51:57;;;;;;;32.83;12.75;;;;;;;8.43;100.00;99239.06;5059782;28;20024;-72
2021/12/28 01:54:23;;;;;;;39.53;14.23;;;;;;;8.39;100.00;99244.28;5058560;28;20531;-73
2021/12/28 01:56:49;;;;;;;39.33;13.52;;;;;;;8.44;100.00;99238.78;5045167;28;20031;-72
2021/12/28 01:59:18;;;;;;;37.10;13.60;;;;;;;8.32;100.00;99243.91;5042397;28;20507;-73
2021/12/28 02:01:43;;;;;;;40.45;13.98;;;;;;;8.15;100.00;99241.00;5050567;28;20439;-72
2021/12/28 02:04:19;;;;;;;35.05;12.93;;;;;;;8.24;100.00;99245.44;5045005;28;20238;-73
2021/12/28 02:06:46;;;;;;;34.60;13.77;;;;;;;8.29;100.00;99241.78;5066914;28;20185;-73
2021/12/28 02:09:12;;;;;;;33.60;12.90;;;;;;;8.02;100.00;99229.78;5054226;28;20421;-72
2021/12/28 02:11:38;;;;;;;42.40;13.88;;;;;;;8.14;100.00;99231.19;5047065;28;20090;-72
2021/12/28 02:14:07;;;;;;;32.20;12.45;;;;;;;8.17;100.00;99231.41;5043417;28;20182;-72
2021/12/28 02:16:34;;;;;;;41.60;14.32;;;;;;;8.12;100.00;99228.78;5043783;28;20029;-73
2021/12/28 02:18:59;;;;;;;33.35;12.85;;;;;;;8.17;100.00;99231.41;5047728;28;20068;-72
2021/12/28 02:21:25;;;;;;;35.85;11.65;;;;;;;8.22;100.00;99227.75;5065794;28;20325;-73
2021/12/28 02:23:51;;;;;;;35.90;12.27;;;;;;;8.05;100.00;99234.66;5059446;28;20510;-72
2021/12/28 02:26:16;;;;;;;38.22;11.82;;;;;;;8.07;100.00;99231.63;5045204;28;20025;-72
2021/12/28 02:28:42;;;;;;;43.17;12.57;;;;;;;8.12;100.00;99233.41;5052168;28;20043;-72
2021/12/28 02:31:08;;;;;;;40.50;12.20;;;;;;;8.14;100.00;99226.53;5060079;28;20479;-71
2021/12/28 02:33:35;;;;;;;40.72;11.75;;;;;;;8.04;100.00;99226.75;5008047;28;20052;-71
2021/12/28 02:36:03;;;;;;;32.85;11.27;;;;;;;8.26;100.00;99229.56;5045677;28;20614;-71
2021/12/28 02:38:30;;;;;;;45.38;12.38;;;;;;;8.14;100.00;99220.28;5044493;28;20021;-71
2021/12/28 02:40:56;;;;;;;29.98;11.40;;;;;;;8.15;100.00;99222.72;5045885;28;20043;-71
2021/12/28 02:43:22;;;;;;;28.52;10.63;;;;;;;8.26;100.00;99226.84;5044040;28;20124;-72
2021/12/28 02:45:54;;;;;;;35.00;10.40;;;;;;;8.31;100.00;99220.44;5043940;28;20044;-72
2021/12/28 02:48:21;;;;;;;35.90;10.48;;;;;;;8.31;100.00;99216.91;5041571;28;20116;-72
2021/12/28 02:50:49;;;;;;;40.05;10.57;;;;;;;8.30;100.00;99221.56;5044776;28;20491;-72
2021/12/28 02:53:18;;;;;;;32.00;9.85;;;;;;;8.41;100.00;99217.50;5059797;28;20474;-72
2021/12/28 02:55:45;;;;;;;38.60;10.85;;;;;;;8.35;100.00;99215.19;5063748;28;20086;-72
2021/12/28 02:58:22;;;;;;;31.38;9.85;;;;;;;8.36;100.00;99203.13;5049265;28;20033;-72
2021/12/28 03:00:52;;;;;;;31.88;9.60;;;;;;;8.32;100.00;99200.22;5043518;28;20555;-72
2021/12/28 03:03:21;;;;;;;33.05;10.27;;;;;;;8.27;100.00;99203.88;5044519;28;20107;-72
2021/12/28 03:05:49;;;;;;;34.38;9.63;;;;;;;8.43;100.00;99200.84;5066011;28;20032;-72
2021/12/28 03:08:17;;;;;;;38.83;9.10;;;;;;;8.40;100.00;99198.69;5055409;28;20025;-71
2021/12/28 03:10:45;;;;;;;35.88;10.00;;;;;;;8.35;100.00;99193.34;5047634;28;20021;-72
2021/12/28 03:13:20;;;;;;;36.22;9.15;;;;;;;8.43;100.00;99201.63;5055446;28;20054;-71
2021/12/28 03:15:45;;;;;;;33.65;9.95;;;;;;;8.42;100.00;99199.97;5040670;28;20032;-72
2021/12/28 03:18:12;;;;;;;35.78;9.90;;;;;;;8.50;100.00;99201.22;5058325;28;20038;-72
2021/12/28 03:20:38;;;;;;;39.88;9.40;;;;;;;8.48;100.00;99195.25;5050666;28;20502;-72
2021/12/28 03:23:04;;;;;;;42.97;8.88;;;;;;;8.51;100.00;99191.09;5068980;28;20036;-72
2021/12/28 03:25:30;;;;;;;32.78;9.30;;;;;;;8.52;100.00;99188.03;5065492;28;20518;-71
2021/12/28 03:27:56;;;;;;;41.40;9.95;;;;;;;8.53;100.00;99186.94;5047122;28;20566;-72
2021/12/28 03:30:22;;;;;;;36.60;8.88;;;;;;;8.45;100.00;99180.28;5054539;28;20357;-72
2021/12/28 03:32:48;;;;;;;37.08;9.13;;;;;;;8.46;100.00;99179.19;5043545;28;20056;-72
2021/12/28 03:35:15;;;;;;;33.67;9.10;;;;;;;8.47;100.00;99174.50;5056860;28;20028;-73
2021/12/28 03:37:41;;;;;;;35.53;9.75;;;;;;;8.42;100.00;99169.94;5059558;28;20510;-72
2021/12/28 03:40:09;;;;;;;37.78;9.55;;;;;;;8.49;100.00;99160.56;5054415;28;20036;-72
2021/12/28 03:42:35;;;;;;;35.03;9.10;;;;;;;8.40;100.00;99157.72;5051703;28;20589;-73
2021/12/28 03:45:00;;;;;;;38.80;9.45;;;;;;;8.38;100.00;99163.50;5042457;28;20040;-73
2021/12/28 03:47:26;;;;;;;35.25;8.95;;;;;;;8.55;100.00;99159.31;5060221;28;20494;-72
2021/12/28 03:49:51;;;;;;;41.08;8.68;;;;;;;8.55;100.00;99162.06;5059392;28;20491;-72
2021/12/28 03:52:17;;;;;;;34.67;9.00;;;;;;;8.51;100.00;99158.31;5041800;28;20037;-72
2021/12/28 03:54:43;;;;;;;32.03;8.63;;;;;;;8.51;100.00;99152.84;5032623;28;20029;-71
2021/12/28 03:57:08;;;;;;;35.92;8.85;;;;;;;8.62;100.00;99156.94;5050221;28;20086;-72
2021/12/28 03:59:34;;;;;;;37.22;9.27;;;;;;;8.50;100.00;99149.31;5059002;28;20542;-73
2021/12/28 04:01:59;;;;;;;33.70;9.13;;;;;;;8.55;100.00;99156.59;5055368;28;20039;-73
2021/12/28 04:04:25;;;;;;;33.63;8.48;;;;;;;8.64;100.00;99149.25;5060962;28;20390;-73
2021/12/28 04:06:51;;;;;;;40.97;9.00;;;;;;;8.68;100.00;99144.78;5047810;28;20024;-73
2021/12/28 04:09:34;;;;;;;36.65;9.20;;;;;;;8.67;100.00;99142.38;5015540;28;20495;-72
2021/12/28 04:11:59;;;;;;;;;;;;;;;8.62;100.00;99151.50;5054693;28;20128;-72
2021/12/28 04:14:24;;;;;;;34.55;8.45;;;;;;;8.64;100.00;99138.31;5043028;28;20050;-72
2021/12/28 04:16:50;;;;;;;40.10;8.40;;;;;;;8.64;100.00;99130.94;5049671;28;20040;-72
2021/12/28 04:19:17;;;;;;;36.70;9.82;;;;;;;8.70;100.00;99128.88;5058295;28;20083;-72
2021/12/28 04:21:42;;;;;;;27.90;9.15;;;;;;;8.77;100.00;99122.97;5044427;28;20024;-72
2021/12/28 04:24:07;;;;;;;34.72;9.23;;;;;;;8.74;100.00;99124.44;5050596;28;20046;-72
2021/12/28 04:26:33;;;;;;;36.65;9.80;;;;;;;8.71;100.00;99125.03;5047946;28;20036;-72
2021/12/28 04:28:58;;;;;;;34.15;9.40;;;;;;;8.76;100.00;99121.38;5055644;28;20120;-73
2021/12/28 04:31:24;;;;;;;33.63;9.07;;;;;;;8.54;100.00;99114.78;5038641;28;20036;-73
2021/12/28 04:33:49;;;;;;;40.85;9.25;;;;;;;8.68;100.00;99120.19;5045527;28;20392;-71
2021/12/28 04:36:16;;;;;;;41.15;10.65;;;;;;;8.71;100.00;99119.59;5056928;28;20033;-72
2021/12/28 04:38:43;;;;;;;40.00;9.93;;;;;;;8.51;100.00;99114.59;5051311;28;20521;-72
2021/12/28 04:41:10;;;;;;;42.30;11.93;;;;;;;8.64;100.00;99113.72;5020465;28;20025;-73
2021/12/28 04:43:37;;;;;;;40.90;11.77;;;;;;;8.76;100.00;99113.19;5060720;28;20089;-72
2021/12/28 04:46:04;;;;;;;30.27;10.75;;;;;;;8.76;100.00;99111.25;5061884;28;20032;-72
2021/12/28 04:48:29;;;;;;;38.33;11.55;;;;;;;8.82;100.00;99111.91;5044364;28;20401;-72
2021/12/28 04:50:55;;;;;;;37.72;11.35;;;;;;;8.80;100.00;99106.75;5062972;28;20059;-73
2021/12/28 04:53:21;;;;;;;29.10;10.05;;;;;;;8.76;100.00;99107.72;5053196;28;20028;-72
2021/12/28 04:55:50;;;;;;;44.05;11.98;;;;;;;8.87;100.00;99100.06;5008144;28;20033;-72
2021/12/28 04:58:17;;;;;;;51.03;12.75;;;;;;;8.93;100.00;99096.06;5043075;28;20029;-72
2021/12/28 05:00:45;;;;;;;34.35;11.05;;;;;;;8.99;100.00;99101.09;5032197;28;20439;-71
2021/12/28 05:03:11;;;;;;;36.90;11.55;;;;;;;8.88;100.00;99090.75;5037466;28;20025;-71
2021/12/28 05:05:43;;;;;;;48.92;12.50;;;;;;;8.92;100.00;99095.28;5037829;28;20041;-71
2021/12/28 05:08:10;;;;;;;38.03;12.07;;;;;;;8.99;100.00;99092.09;5043600;28;20029;-72
2021/12/28 05:10:36;;;;;;;43.70;11.65;;;;;;;9.00;100.00;99088.22;5041627;28;20251;-71
2021/12/28 05:13:02;;;;;;;46.17;11.82;;;;;;;8.96;100.00;99079.03;5043263;28;20395;-71
2021/12/28 05:15:28;;;;;;;36.35;12.07;;;;;;;9.06;100.00;99084.22;5051652;28;20056;-72
2021/12/28 05:17:53;;;;;;;48.45;12.77;;;;;;;9.13;100.00;99079.13;5061234;28;20035;-71
2021/12/28 05:20:18;;;;;;;38.72;11.05;;;;;;;9.33;100.00;99077.75;5059108;28;20040;-72
2021/12/28 05:22:44;;;;;;;47.75;11.80;;;;;;;9.29;100.00;99081.44;5062041;28;20585;-72
2021/12/28 05:25:09;;;;;;;37.88;10.65;;;;;;;9.28;100.00;99082.53;5063389;28;20115;-72
2021/12/28 05:27:35;;;;;;;47.80;12.23;;;;;;;9.18;100.00;99068.06;5056495;28;20046;-72
2021/12/28 05:30:03;;;;;;;37.88;11.18;;;;;;;9.28;100.00;99075.16;5062596;28;20039;-71
2021/12/28 05:32:29;;;;;;;32.10;11.50;;;;;;;9.42;100.00;99057.81;5059930;28;20128;-72
2021/12/28 05:34:54;;;;;;;41.00;11.20;;;;;;;9.43;100.00;99064.88;5060256;28;20111;-72
2021/12/28 05:37:19;;;;;;;40.08;12.10;;;;;;;9.41;100.00;99062.47;5062683;28;20428;-72
2021/12/28 05:39:45;;;;;;;38.17;11.95;;;;;;;9.41;100.00;99062.47;5054740;28;20048;-73
2021/12/28 05:42:11;;;;;;;41.17;12.52;;;;;;;9.41;100.00;99059.72;5042094;28;20356;-71
2021/12/28 05:44:37;;;;;;;34.20;11.68;;;;;;;9.43;100.00;99052.03;5058945;28;20052;-73
2021/12/28 05:47:02;;;;;;;34.75;12.43;;;;;;;9.47;100.00;99053.00;5044870;28;20537;-73
2021/12/28 05:49:28;;;;;;;23.40;10.80;;;;;;;9.56;100.00;99053.03;5044445;28;20399;-73
2021/12/28 05:51:53;;;;;;;32.75;12.35;;;;;;;9.45;100.00;99048.97;5038290;28;20029;-73
2021/12/28 05:54:19;;;;;;;32.70;11.90;;;;;;;9.39;100.00;99040.09;5050929;28;20389;-73
2021/12/28 05:56:45;;;;;;;30.92;11.90;;;;;;;9.62;100.00;99042.72;5052689;28;20139;-73
2021/12/28 05:59:11;;;;;;;24.08;12.07;;;;;;;9.74;100.00;99034.72;5066288;28;20036;-73
2021/12/28 06:01:37;;;;;;;29.48;12.13;;;;;;;9.65;100.00;99026.47;5049894;28;20056;-73
2021/12/28 06:04:03;;;;;;;29.20;12.00;;;;;;;9.61;100.00;99020.03;5046465;28;20029;-72
2021/12/28 06:06:30;;;;;;;27.00;12.25;;;;;;;9.62;100.00;99016.16;5040057;28;20033;-72
2021/12/28 06:08:55;;;;;;;28.23;14.07;;;;;;;9.55;100.00;99016.66;5020077;28;20131;-72
2021/12/28 06:11:22;;;;;;;27.58;13.77;;;;;;;9.56;100.00;99006.53;5042854;28;20141;-72
2021/12/28 06:13:47;;;;;;;25.48;14.07;;;;;;;9.59;100.00;99005.84;5057945;28;20125;-72
2021/12/28 06:16:15;;;;;;;28.83;14.52;;;;;;;9.62;100.00;99004.44;5066364;28;20474;-72
2021/12/28 06:18:40;;;;;;;30.83;13.85;;;;;;;9.66;100.00;98999.94;5051472;28;20494;-72
2021/12/28 06:21:06;;;;;;;27.45;13.20;;;;;;;9.67;100.00;98996.06;5061896;28;20313;-71
2021/12/28 06:23:32;;;;;;;34.55;14.85;;;;;;;9.84;100.00;99000.72;5053452;28;20372;-71
2021/12/28 06:25:57;;;;;;;29.67;14.93;;;;;;;9.89;100.00;98995.09;5048090;28;20044;-72
2021/12/28 06:28:23;;;;;;;27.55;14.68;;;;;;;9.71;100.00;98997.84;5063248;28;20031;-72
2021/12/28 06:30:49;;;;;;;26.33;14.48;;;;;;;9.74;100.00;98999.13;5053829;28;20434;-71
2021/12/28 06:33:15;;;;;;;29.05;13.40;;;;;;;9.69;100.00;99002.84;5063446;28;20049;-72
2021/12/28 06:35:41;;;;;;;27.95;14.52;;;;;;;9.83;100.00;99004.59;5060807;28;20037;-72
2021/12/28 06:38:06;;;;;;;26.10;13.93;;;;;;;9.85;100.00;99003.13;5051255;28;20082;-73
2021/12/28 06:40:33;;;;;;;27.95;15.05;;;;;;;9.87;100.00;98994.59;5043888;28;20036;-71
2021/12/28 06:42:58;;;;;;;27.00;15.38;;;;;;;9.83;100.00;98993.66;5041791;28;20028;-72
2021/12/28 06:45:24;;;;;;;27.80;14.38;;;;;;;9.87;100.00;98995.44;5070339;28;20367;-72
2021/12/28 06:47:49;;;;;;;32.80;15.50;;;;;;;9.84;100.00;98984.28;5064433;28;20051;-72
2021/12/28 06:50:15;;;;;;;24.17;14.25;;;;;;;9.92;100.00;98989.00;5059761;28;20539;-72
2021/12/28 06:52:41;;;;;;;28.42;14.05;;;;;;;9.78;100.00;98986.41;5043160;28;20033;-71
2021/12/28 06:55:08;;;;;;;21.45;14.00;;;;;;;9.81;100.00;98985.75;5052026;28;20079;-72
2021/12/28 06:57:34;;;;;;;23.33;14.25;;;;;;;9.91;100.00;98984.63;5054506;28;20029;-72
2021/12/28 07:00:00;;;;;;;23.35;14.77;;;;;;;9.79;100.00;98987.19;5042088;28;20106;-72
2021/12/28 07:02:26;;;;;;;28.88;17.20;;;;;;;9.84;100.00;98985.13;5047864;28;20115;-71
2021/12/28 07:04:52;;;;;;;28.25;16.88;;;;;;;9.77;100.00;98990.25;5046722;28;20043;-71
2021/12/28 07:07:19;;;;;;;28.58;16.80;;;;;;;9.77;100.00;98993.00;5044374;28;20051;-71
2021/12/28 07:09:44;;;;;;;33.63;17.80;;;;;;;9.93;100.00;98987.84;5061135;28;20384;-71
2021/12/28 07:12:10;;;;;;;27.33;17.95;;;;;;;9.96;100.00;98976.25;5055665;28;20036;-71
2021/12/28 07:14:37;;;;;;;32.97;18.17;;;;;;;10.04;100.00;98969.16;5060831;28;20055;-72
2021/12/28 07:17:03;;;;;;;31.73;19.00;;;;;;;9.90;100.00;98961.94;5046377;28;20108;-72
2021/12/28 07:19:28;;;;;;;27.35;16.58;;;;;;;10.03;100.00;98959.34;5059199;28;20032;-72
2021/12/28 07:21:54;;;;;;;42.53;18.63;;;;;;;10.06;100.00;98948.53;5058047;28;20028;-72
2021/12/28 07:24:20;;;;;;;35.92;19.17;;;;;;;10.00;100.00;98957.25;5061873;28;20414;-71
2021/12/28 07:26:46;;;;;;;27.13;17.27;;;;;;;10.04;100.00;98958.22;5042463;28;20174;-71
2021/12/28 07:29:12;;;;;;;28.85;17.13;;;;;;;10.00;100.00;98959.97;5054887;28;20115;-71
2021/12/28 07:31:38;;;;;;;30.60;17.70;;;;;;;10.05;100.00;98968.03;5039203;28;20037;-71
2021/12/28 07:34:04;;;;;;;27.40;17.70;;;;;;;9.97;100.00;98963.34;5026301;28;20056;-72
2021/12/28 07:36:30;;;;;;;28.60;18.52;;;;;;;9.89;100.00;98956.78;5045653;28;20500;-71
2021/12/28 07:38:55;;;;;;;29.65;18.30;;;;;;;9.99;100.00;98950.97;5045473;28;20090;-72
2021/12/28 07:41:21;;;;;;;30.50;17.58;;;;;;;9.99;100.00;98948.22;5042438;28;20102;-72
2021/12/28 07:43:47;;;;;;;27.10;18.20;;;;;;;9.95;100.00;98944.53;5039804;28;20075;-72
2021/12/28 07:46:12;;;;;;;29.20;17.55;;;;;;;9.98;100.00;98945.81;5042980;28;20052;-72
2021/12/28 07:48:38;;;;;;;24.83;17.33;;;;;;;10.00;100.00;98946.28;5040837;28;20250;-71
2021/12/28 07:51:04;;;;;;;27.58;19.17;;;;;;;10.11;100.00;98942.09;5030228;28;20028;-71
2021/12/28 07:53:30;;;;;;;30.23;18.13;;;;;;;10.06;100.00;98936.78;5063323;28;20035;-71
2021/12/28 07:55:57;;;;;;;26.52;18.10;;;;;;;9.99;100.00;98934.53;5062272;28;20044;-71
2021/12/28 07:58:24;;;;;;;27.05;17.55;;;;;;;10.01;100.00;98940.50;5062070;28;20032;-71
2021/12/28 08:00:49;;;;;;;30.65;18.88;;;;;;;10.15;100.00;98937.56;5060594;28;20055;-72
2021/12/28 08:03:15;;;;;;;27.52;17.83;;;;;;;10.16;100.00;98941.13;5060165;28;20083;-70
2021/12/28 08:05:40;;;;;;;29.50;17.95;;;;;;;10.08;100.00;98929.03;5044093;28;20044;-71
2021/12/28 08:08:06;;;;;;;33.25;18.05;;;;;;;10.28;100.00;98931.09;5009360;28;20108;-71
2021/12/28 08:10:31;;;;;;;26.02;17.38;;;;;;;10.12;100.00;98927.28;5059804;28;20391;-71
2021/12/28 08:12:57;;;;;;;26.15;17.90;;;;;;;10.12;100.00;98924.53;5061311;28;20052;-72
2021/12/28 08:15:24;;;;;;;28.50;17.33;;;;;;;10.06;100.00;98918.41;5063986;28;20032;-72
2021/12/28 08:17:50;;;;;;;25.05;16.40;;;;;;;10.08;100.00;98929.88;5050870;28;20028;-72
2021/12/28 08:20:17;;;;;;;26.92;16.23;;;;;;;10.00;100.00;98919.75;5061395;28;20035;-71
2021/12/28 08:22:48;;;;;;;24.58;16.48;;;;;;;10.11;100.00;98922.91;5062109;28;20040;-73
2021/12/28 08:25:16;;;;;;;27.55;16.42;;;;;;;10.12;100.00;98921.81;5062233;28;20035;-71
2021/12/28 08:27:43;;;;;;;23.95;16.08;;;;;;;10.10;100.00;98926.78;5061554;28;20093;-72
2021/12/28 08:30:11;;;;;;;27.90;16.92;;;;;;;10.19;100.00;98924.03;5060669;28;20471;-72
2021/12/28 08:32:37;;;;;;;26.50;16.55;;;;;;;10.18;100.00;98920.47;5056721;28;20135;-71
2021/12/28 08:35:05;;;;;;;24.83;15.43;;;;;;;10.03;100.00;98912.78;5041571;28;20041;-71
2021/12/28 08:37:30;;;;;;;24.27;15.43;;;;;;;10.30;100.00;98920.59;5060752;28;20033;-72
2021/12/28 08:39:56;;;;;;;26.92;17.08;;;;;;;10.27;100.00;98902.09;5061223;28;20024;-72
2021/12/28 08:42:22;;;;;;;25.98;16.30;;;;;;;10.27;100.00;98910.31;5060995;28;20074;-71
2021/12/28 08:44:50;;;;;;;22.35;14.35;;;;;;;10.21;100.00;98903.38;5061158;28;20074;-71
2021/12/28 08:47:17;;;;;;;21.65;14.50;;;;;;;10.25;100.00;98904.34;5058534;28;20051;-71
2021/12/28 08:49:43;;;;;;;20.80;14.25;;;;;;;10.29;100.00;98902.56;5062726;28;20098;-70
2021/12/28 08:52:09;;;;;;;22.60;13.88;;;;;;;10.29;100.00;98904.50;5041817;28;20124;-72
2021/12/28 08:54:34;;;;;;;18.42;13.30;;;;;;;10.34;100.00;98892.59;5062667;28;20032;-70
2021/12/28 08:57:00;;;;;;;18.33;13.32;;;;;;;10.30;100.00;98893.22;5061263;28;20031;-71
2021/12/28 08:59:25;;;;;;;20.50;12.15;;;;;;;10.22;100.00;98896.00;5062486;28;20066;-71
2021/12/28 09:01:51;;;;;;;17.83;11.70;;;;;;;10.37;100.00;98900.16;5058177;28;20131;-70
2021/12/28 09:04:18;;;;;;;18.98;12.27;;;;;;;10.38;100.00;98899.00;5061807;28;20490;-72
2021/12/28 09:06:46;;;;;;;17.35;11.98;;;;;;;10.40;100.00;98881.13;5061095;28;20028;-71
2021/12/28 09:09:11;;;;;;;16.13;11.95;;;;;;;10.39;100.00;98889.66;5059835;28;20032;-71
2021/12/28 09:11:37;;;;;;;16.77;11.55;;;;;;;10.36;100.00;98879.38;5059418;28;20453;-72
2021/12/28 09:14:02;;;;;;;17.60;11.90;;;;;;;10.40;100.00;98874.84;5058635;28;20032;-71
2021/12/28 09:16:29;;;;;;;15.45;11.88;;;;;;;10.49;100.00;98872.84;5057809;28;20539;-71
2021/12/28 09:18:54;;;;;;;16.95;11.75;;;;;;;10.46;100.00;98859.81;5059274;28;20028;-70
2021/12/28 09:21:21;;;;;;;15.85;11.13;;;;;;;10.38;100.00;98866.13;5059290;28;20096;-70
2021/12/28 09:23:46;;;;;;;15.40;11.40;;;;;;;10.57;100.00;98863.78;5060301;28;20043;-70
2021/12/28 09:26:12;;;;;;;15.63;11.13;;;;;;;10.40;100.00;98859.22;5059841;28;20060;-70
2021/12/28 09:28:37;;;;;;;14.02;11.18;;;;;;;10.45;100.00;98858.22;5062562;28;20448;-71
2021/12/28 09:31:03;;;;;;;14.13;10.88;;;;;;;10.66;100.00;98864.56;5052272;28;20040;-71
2021/12/28 09:33:29;;;;;;;14.38;10.57;;;;;;;10.52;100.00;98858.50;5045000;28;20052;-71
2021/12/28 09:35:55;;;;;;;13.80;10.75;;;;;;;10.69;100.00;98856.81;5045870;28;20083;-71
2021/12/28 09:38:22;;;;;;;15.32;11.02;;;;;;;10.61;100.00;98850.25;5031249;28;20127;-73
2021/12/28 09:40:48;;;;;;;14.15;10.70;;;;;;;10.76;100.00;98851.63;5063425;28;20060;-70
2021/12/28 09:43:14;;;;;;;11.38;10.10;;;;;;;10.58;100.00;98848.97;5053250;28;20224;-71
2021/12/28 09:45:40;;;;;;;11.55;10.13;;;;;;;10.57;100.00;98855.56;5062568;28;20424;-70
2021/12/28 09:48:07;;;;;;;11.75;10.07;;;;;;;10.65;100.00;98848.44;5052505;28;20398;-70
2021/12/28 09:50:34;;;;;;;12.07;9.77;;;;;;;10.67;100.00;98851.66;5047655;28;20047;-70
2021/12/28 09:53:00;;;;;;;13.65;9.90;;;;;;;10.52;100.00;98839.31;5043448;28;20032;-71
2021/12/28 09:55:27;;;;;;;11.13;8.70;;;;;;;10.45;100.00;98828.88;5045901;28;20095;-72
2021/12/28 09:57:54;;;;;;;10.40;8.75;;;;;;;10.60;100.00;98834.94;5046065;28;20033;-72
2021/12/28 10:00:22;;;;;;;11.32;8.85;;;;;;;10.40;100.00;98831.03;5011048;28;20059;-71
2021/12/28 10:02:47;;;;;;;11.95;9.85;;;;;;;10.45;100.00;98828.88;5043894;28;20448;-71
2021/12/28 10:05:18;;;;;;;13.02;9.63;;;;;;;10.53;100.00;98824.50;5042455;28;20067;-71
2021/12/28 10:07:53;;;;;;;11.50;9.32;;;;;;;10.64;100.00;98823.00;5045635;28;20035;-71
2021/12/28 10:10:18;;;;;;;10.60;9.15;;;;;;;10.54;100.00;98826.09;5055707;28;20094;-70
2021/12/28 10:12:49;;;;;;;12.13;9.60;;;;;;;10.59;100.00;98823.19;5044589;28;20032;-70
2021/12/28 10:15:20;;;;;;;10.02;8.45;;;;;;;10.58;100.00;98821.56;5056601;28;20145;-70
2021/12/28 10:17:49;;;;;;;9.52;8.00;;;;;;;10.47;100.00;98812.13;5042983;28;20025;-71
2021/12/28 10:20:36;;;;;;;8.07;7.22;;;;;;;10.42;100.00;98809.56;5043377;28;20480;-70
2021/12/28 10:23:10;;;;;;;8.52;7.13;;;;;;;10.65;100.00;98808.13;5039246;28;20052;-70
2021/12/28 10:25:42;;;;;;;6.50;5.80;;;;;;;10.39;100.00;98812.97;5057136;28;20077;-70
2021/12/28 10:28:11;;;;;;;6.30;5.25;;;;;;;10.59;100.00;98811.41;5062753;28;20040;-71
2021/12/28 10:30:45;;;;;;;7.20;5.82;;;;;;;10.38;100.00;98803.97;5048607;28;20048;-71
2021/12/28 10:33:13;;;;;;;6.93;5.30;;;;;;;10.47;100.00;98793.75;5038978;28;20068;-70
2021/12/28 10:35:42;;;;;;;5.95;4.75;;;;;;;10.34;100.00;98786.56;5048946;28;20394;-71
2021/12/28 10:38:12;;;;;;;5.30;4.22;;;;;;;10.37;100.00;98791.38;5062322;28;20451;-71
2021/12/28 10:40:40;;;;;;;5.32;4.35;;;;;;;10.45;100.00;98789.75;5061187;28;20123;-70
2021/12/28 10:43:08;;;;;;;6.03;4.60;;;;;;;10.27;100.00;98789.00;5060899;28;20020;-72
2021/12/28 10:45:43;;;;;;;9.48;4.70;;;;;;;10.56;100.00;98780.00;5049223;28;20025;-71
2021/12/28 10:48:17;;;;;;;6.97;4.20;;;;;;;10.27;100.00;98783.53;5042131;28;20021;-72
2021/12/28 10:50:49;;;;;;;4.10;3.70;;;;;;;10.36;100.00;98773.34;5041965;28;20342;-72
2021/12/28 10:53:18;;;;;;;4.15;3.20;;;;;;;10.45;100.00;98770.56;5042003;28;20048;-70
2021/12/28 10:55:46;;;;;;;6.43;3.00;;;;;;;10.39;100.00;98752.72;5042814;28;20031;-71
2021/12/28 10:58:28;;;;;;;6.10;3.50;;;;;;;10.45;100.00;98754.91;5041382;28;20017;-71
2021/12/28 11:00:55;;;;;;;5.57;3.45;;;;;;;10.68;100.00;98762.03;5047464;28;20033;-71
2021/12/28 11:03:26;;;;;;;6.07;3.63;;;;;;;10.70;100.00;98771.50;5049947;28;20184;-71
2021/12/28 11:05:54;;;;;;;6.32;3.80;;;;;;;10.74;100.00;98752.47;5034382;28;20111;-72
2021/12/28 11:08:24;;;;;;;7.85;4.03;;;;;;;10.57;100.00;98758.88;5061572;28;20205;-72
2021/12/28 11:10:53;;;;;;;7.32;4.25;;;;;;;10.32;100.00;98744.19;5054110;28;20028;-72
2021/12/28 11:13:20;;;;;;;6.72;4.10;;;;;;;10.70;100.00;98749.59;5042438;28;20482;-72
2021/12/28 11:15:46;;;;;;;12.73;4.43;;;;;;;10.73;100.00;98757.16;5055510;28;20036;-72